createdAt,value
2018-09-19T00:01:25.831Z,9.93
2018-09-19T00:06:20.306Z,12.87
2018-09-19T00:11:15.136Z,9.70
2018-09-19T00:16:10.123Z,10.47
2018-09-19T00:21:04.710Z,11.77
2018-09-19T00:25:59.213Z,10.27
2018-09-19T00:30:54.015Z,11.63
2018-09-19T00:35:48.734Z,8.17
2018-09-19T00:40:43.245Z,10.47
2018-09-19T00:45:37.705Z,12.60
2018-09-19T00:50:32.203Z,13.93
2018-09-19T00:55:26.693Z,14.97
2018-09-19T01:00:21.346Z,9.90
2018-09-19T01:05:15.909Z,11.80
2018-09-19T01:10:10.584Z,13.03
2018-09-19T01:15:05.154Z,12.27
2018-09-19T01:19:59.932Z,13.97
2018-09-19T01:24:57.167Z,16.83
2018-09-19T01:29:52.341Z,12.73
2018-09-19T01:34:46.923Z,13.50
2018-09-19T01:39:41.414Z,12.80
2018-09-19T01:44:36.034Z,13.97
2018-09-19T01:49:30.640Z,11.30
2018-09-19T01:54:26.005Z,12.27
2018-09-19T01:59:20.622Z,11.27
2018-09-19T02:04:15.412Z,12.53
2018-09-19T02:09:12.158Z,10.80
2018-09-19T02:14:07.312Z,10.87
2018-09-19T02:19:02.091Z,16.43
2018-09-19T02:23:56.798Z,11.13
2018-09-19T02:28:51.334Z,13.73
2018-09-19T02:33:46.250Z,10.10
2018-09-19T02:38:40.720Z,11.37
2018-09-19T02:43:35.192Z,11.43
2018-09-19T02:48:29.692Z,12.63
2018-09-19T02:53:24.317Z,15.33
2018-09-19T02:58:18.795Z,10.40
2018-09-19T03:03:13.262Z,17.87
2018-09-19T03:08:07.874Z,13.07
2018-09-19T03:13:02.348Z,15.10
2018-09-19T03:17:56.904Z,13.70
2018-09-19T03:22:51.476Z,13.17
2018-09-19T03:27:45.969Z,12.63
2018-09-19T03:32:40.682Z,14.37
2018-09-19T03:37:35.171Z,10.83
2018-09-19T03:42:29.650Z,16.97
2018-09-19T03:47:24.129Z,11.37
2018-09-19T03:52:18.583Z,14.83
2018-09-19T03:57:13.138Z,13.13
2018-09-19T04:02:07.600Z,17.57
2018-09-19T04:07:02.410Z,11.77
2018-09-19T04:11:56.909Z,15.77
2018-09-19T04:16:51.398Z,17.90
2018-09-19T04:21:49.526Z,12.70
2018-09-19T04:26:44.017Z,15.73
2018-09-19T04:31:38.495Z,16.93
2018-09-19T04:36:33.017Z,18.90
2018-09-19T04:41:27.516Z,14.30
2018-09-19T04:46:22.011Z,16.93
2018-09-19T04:51:16.589Z,14.90
2018-09-19T04:56:11.357Z,10.73
2018-09-19T05:01:05.876Z,18.07
2018-09-19T05:06:00.367Z,14.80
2018-09-19T05:10:54.818Z,16.53
2018-09-19T05:15:49.441Z,15.87
2018-09-19T05:20:43.907Z,21.37
2018-09-19T05:25:38.576Z,17.40
2018-09-19T05:30:33.070Z,18.50
2018-09-19T05:35:27.578Z,16.57
2018-09-19T05:40:22.092Z,15.83
2018-09-19T05:45:16.593Z,18.27
2018-09-19T05:50:11.044Z,15.47
2018-09-19T05:55:05.673Z,19.53
2018-09-19T06:00:00.331Z,19.57
2018-09-19T06:04:54.840Z,16.63
2018-09-19T06:09:50.008Z,14.27
2018-09-19T06:14:45.391Z,16.83
2018-09-19T06:19:40.028Z,12.70
2018-09-19T06:24:34.686Z,11.73
2018-09-19T06:29:29.321Z,15.30
2018-09-19T06:34:24.230Z,13.27
2018-09-19T06:39:18.834Z,12.00
2018-09-19T06:44:14.351Z,16.87
2018-09-19T06:49:08.833Z,13.53
2018-09-19T06:54:03.677Z,11.00
2018-09-19T06:59:00.088Z,9.30
2018-09-19T07:03:56.382Z,8.87
2018-09-19T07:08:50.850Z,10.70
2018-09-19T07:13:45.703Z,11.23
2018-09-19T07:18:40.934Z,9.67
2018-09-19T07:23:35.886Z,10.93
2018-09-19T07:28:31.732Z,10.07
2018-09-19T07:33:26.733Z,12.27
2018-09-19T07:38:21.778Z,12.13
2018-09-19T07:43:17.455Z,8.67
2018-09-19T07:48:12.255Z,9.37
2018-09-19T07:53:07.203Z,11.80
2018-09-19T07:58:02.451Z,11.63
2018-09-19T08:02:57.440Z,12.67
2018-09-19T08:07:52.858Z,13.30
2018-09-19T08:12:48.090Z,13.20
2018-09-19T08:17:43.044Z,9.27
2018-09-19T08:22:37.786Z,12.83
2018-09-19T08:27:32.927Z,8.67
2018-09-19T08:32:28.265Z,12.90
2018-09-19T08:37:23.390Z,10.20
2018-09-19T08:42:18.394Z,14.43
2018-09-19T08:47:13.581Z,12.37
2018-09-19T08:52:08.685Z,8.90
2018-09-19T08:57:03.430Z,7.90
2018-09-19T09:01:58.566Z,9.43
2018-09-19T09:06:53.372Z,11.03
2018-09-19T09:11:48.287Z,11.93
2018-09-19T09:16:43.039Z,8.17
2018-09-19T09:21:38.024Z,8.90
2018-09-19T09:26:32.966Z,9.67
2018-09-19T09:31:27.912Z,8.53
2018-09-19T09:36:22.849Z,9.07
2018-09-19T09:41:17.844Z,5.53
2018-09-19T09:46:12.647Z,8.00
2018-09-19T09:51:07.379Z,7.43
2018-09-19T09:56:02.259Z,8.27
2018-09-19T10:00:57.034Z,7.80
2018-09-19T10:05:51.979Z,6.10
2018-09-19T10:10:46.769Z,7.73
2018-09-19T10:15:41.490Z,9.13
2018-09-19T10:20:36.542Z,6.63
2018-09-19T10:25:31.373Z,5.13
2018-09-19T10:30:26.403Z,7.43
2018-09-19T10:35:21.317Z,6.07
2018-09-19T10:40:17.281Z,5.90
2018-09-19T10:45:13.367Z,7.10
2018-09-19T10:50:08.224Z,6.20
2018-09-19T10:55:02.970Z,6.90
2018-09-19T10:59:57.695Z,6.00
2018-09-19T11:04:52.440Z,5.47
2018-09-19T11:09:47.210Z,5.53
2018-09-19T11:14:41.961Z,8.50
2018-09-19T11:19:36.695Z,6.70
2018-09-19T11:24:31.456Z,6.70
2018-09-19T11:29:27.259Z,8.83
2018-09-19T11:34:21.976Z,8.93
2018-09-19T11:39:16.758Z,4.90
2018-09-19T11:44:11.609Z,9.97
2018-09-19T11:49:06.661Z,6.17
2018-09-19T11:54:01.408Z,7.10
2018-09-19T11:58:56.504Z,5.90
2018-09-19T12:03:51.230Z,7.00
2018-09-19T12:08:45.993Z,5.70
2018-09-19T12:13:41.310Z,5.20
2018-09-19T12:18:36.150Z,6.80
2018-09-19T12:23:30.922Z,5.93
2018-09-19T12:28:25.869Z,8.53
2018-09-19T12:33:20.675Z,4.80
2018-09-19T12:38:15.636Z,7.13
2018-09-19T12:43:10.463Z,4.60
2018-09-19T12:48:05.369Z,12.70
2018-09-19T12:53:01.028Z,7.37
2018-09-19T12:57:55.736Z,8.00
2018-09-19T13:02:50.862Z,5.93
2018-09-19T13:07:45.761Z,6.73
2018-09-19T13:12:41.309Z,4.83
2018-09-19T13:17:36.164Z,5.70
2018-09-19T13:22:31.132Z,5.43
2018-09-19T13:27:25.924Z,6.30
2018-09-19T13:32:21.281Z,6.40
2018-09-19T13:37:15.994Z,6.07
2018-09-19T13:42:11.173Z,5.27
2018-09-19T13:47:06.517Z,6.17
2018-09-19T13:52:01.324Z,5.00
2018-09-19T13:56:56.086Z,6.13
2018-09-19T14:01:51.077Z,6.10
2018-09-19T14:06:45.808Z,7.37
2018-09-19T14:11:40.605Z,3.63
2018-09-19T14:16:35.502Z,6.77
2018-09-19T14:21:30.242Z,6.73
2018-09-19T14:26:25.740Z,6.77
2018-09-19T14:31:20.490Z,9.97
2018-09-19T14:36:15.321Z,5.77
2018-09-19T14:41:10.314Z,5.33
2018-09-19T14:46:05.857Z,4.10
2018-09-19T14:51:00.685Z,4.97
2018-09-19T14:55:55.458Z,4.83
2018-09-19T15:00:50.797Z,8.70
2018-09-19T15:05:45.822Z,6.70
2018-09-19T15:10:40.805Z,5.30
2018-09-19T15:15:35.762Z,9.40
2018-09-19T15:20:30.917Z,7.37
2018-09-19T15:25:25.953Z,7.10
2018-09-19T15:30:20.885Z,5.93
2018-09-19T15:35:15.708Z,7.03
2018-09-19T15:40:10.473Z,7.13
2018-09-19T15:45:05.543Z,6.17
2018-09-19T15:50:00.304Z,4.37
2018-09-19T15:54:55.751Z,5.47
2018-09-19T15:59:53.435Z,7.60
2018-09-19T16:04:49.210Z,5.17
2018-09-19T16:09:44.368Z,4.60
2018-09-19T16:14:39.327Z,5.73
2018-09-19T16:19:34.920Z,5.57
2018-09-19T16:24:29.654Z,4.50
2018-09-19T16:29:24.406Z,7.10
2018-09-19T16:34:19.183Z,7.97
2018-09-19T16:39:14.270Z,6.57
2018-09-19T16:44:09.068Z,6.57
2018-09-19T16:49:04.746Z,4.70
2018-09-19T16:54:00.425Z,8.30
2018-09-19T16:58:55.803Z,7.83
2018-09-19T17:03:50.557Z,6.97
2018-09-19T17:08:45.054Z,5.93
2018-09-19T17:13:39.549Z,10.33
2018-09-19T17:18:34.192Z,8.00
2018-09-19T17:23:28.670Z,6.27
2018-09-19T17:28:23.249Z,8.17
2018-09-19T17:33:18.239Z,6.00
2018-09-19T17:38:12.992Z,5.43
2018-09-19T17:43:08.032Z,7.23
2018-09-19T17:48:02.510Z,5.23
2018-09-19T17:52:57.255Z,5.97
2018-09-19T17:57:51.818Z,6.53
2018-09-19T18:02:46.308Z,9.93
2018-09-19T18:07:40.773Z,10.20
2018-09-19T18:12:46.055Z,10.90
2018-09-19T18:17:44.103Z,9.40
2018-09-19T18:22:53.072Z,6.33
2018-09-19T18:27:47.597Z,8.63
2018-09-19T18:32:42.895Z,5.77
2018-09-19T18:37:37.741Z,9.00
2018-09-19T18:42:32.867Z,5.73
2018-09-19T18:47:27.776Z,9.90
2018-09-19T18:52:22.434Z,8.77
2018-09-19T18:57:17.000Z,8.07
2018-09-19T19:02:11.661Z,9.43
2018-09-19T19:07:06.444Z,8.83
2018-09-19T19:12:01.269Z,7.83
2018-09-19T19:16:56.147Z,9.03
2018-09-19T19:21:50.866Z,6.20
2018-09-19T19:26:45.386Z,7.43
2018-09-19T19:31:39.865Z,9.50
2018-09-19T19:36:34.785Z,8.70
2018-09-19T19:41:29.420Z,11.93
2018-09-19T19:46:24.227Z,12.07
2018-09-19T19:51:18.912Z,14.10
2018-09-19T19:56:13.430Z,12.53
2018-09-19T20:01:08.366Z,12.10
2018-09-19T20:06:03.003Z,8.83
2018-09-19T20:10:57.555Z,9.57
2018-09-19T20:15:52.261Z,10.63
2018-09-19T20:20:46.809Z,10.30
2018-09-19T20:25:41.419Z,10.10
2018-09-19T20:30:36.394Z,10.43
2018-09-19T20:35:30.928Z,10.40
2018-09-19T20:40:27.431Z,12.90
2018-09-19T20:45:21.933Z,13.53
2018-09-19T20:50:16.491Z,11.73
2018-09-19T20:55:11.034Z,9.70
2018-09-19T21:00:06.298Z,9.40
2018-09-19T21:05:01.042Z,10.47
2018-09-19T21:09:57.076Z,10.37
2018-09-19T21:14:52.477Z,9.77
2018-09-19T21:19:47.091Z,13.27
2018-09-19T21:24:41.689Z,14.27
2018-09-19T21:29:36.226Z,9.97
2018-09-19T21:34:30.770Z,14.43
2018-09-19T21:39:25.443Z,10.93
2018-09-19T21:44:20.400Z,10.43
2018-09-19T21:49:16.302Z,12.17
2018-09-19T21:54:10.772Z,15.63
2018-09-19T21:59:05.453Z,12.70
2018-09-19T22:04:00.034Z,12.27
2018-09-19T22:08:55.118Z,14.90
2018-09-19T22:13:49.607Z,14.80
2018-09-19T22:18:44.300Z,11.77
2018-09-19T22:23:38.846Z,13.10
2018-09-19T22:28:35.794Z,12.13
2018-09-19T22:33:30.265Z,13.40
2018-09-19T22:38:24.816Z,11.67
2018-09-19T22:43:19.664Z,15.00
2018-09-19T22:48:14.327Z,11.50
2018-09-19T22:53:08.981Z,12.27
2018-09-19T22:58:03.688Z,14.30
2018-09-19T23:02:58.162Z,9.97
2018-09-19T23:07:52.937Z,16.23
2018-09-19T23:12:47.439Z,12.80
2018-09-19T23:17:41.953Z,13.80
2018-09-19T23:22:36.787Z,18.30
2018-09-19T23:27:31.446Z,13.30
2018-09-19T23:32:25.886Z,12.13
2018-09-19T23:37:21.013Z,15.80
2018-09-19T23:42:15.476Z,15.43
2018-09-19T23:47:09.956Z,13.20
2018-09-19T23:52:04.590Z,16.70
2018-09-19T23:56:59.090Z,11.23
